Rio Pardo, Brazil
Current Conditions -  °F | °C
As of 12:00 PM on Monday 24 Nov 2014 (Local Time) from SBPA Reporting Station
Clear Clear  
Wind Chill: 84°   Ceiling: Unl
Heat Index: 86°   Visibility: 6mi
Dew Point: 64°   Wind: 5mph
Humidity: 51%   Direction: 70°ENE
Pressure: 29.88"   Gusts: NA
Location:  29.99°S, 52.38°W
Report Text: SBPA 241400Z 07004KT CAVOK 29/18 Q1012
Loading
Personal Weather Stations






























Interactive Weather Map New forecast layout! Learn more

10-Day Weather Forecast

Advertisements
Track Severe Weather on mobile